sensor_id;sensor_type;location;lat;lon;timestamp;pressure;altitude;pressure_sealevel;temperature;humidity
82416;BME280;72058;47.782;10.618;2023-08-24T00:01:07;93772.78;;;22.69;68.79
82416;BME280;72058;47.782;10.618;2023-08-24T00:03:34;93769.59;;;22.63;69.41
82416;BME280;72058;47.782;10.618;2023-08-24T00:05:59;93771.81;;;22.37;70.50
82416;BME280;72058;47.782;10.618;2023-08-24T00:08:24;93778.09;;;22.30;70.63
82416;BME280;72058;47.782;10.618;2023-08-24T00:10:50;93772.84;;;22.14;70.93
82416;BME280;72058;47.782;10.618;2023-08-24T00:13:15;93776.50;;;22.25;70.74
82416;BME280;72058;47.782;10.618;2023-08-24T00:15:41;93773.81;;;22.40;70.14
82416;BME280;72058;47.782;10.618;2023-08-24T00:18:06;93767.09;;;22.44;69.63
82416;BME280;72058;47.782;10.618;2023-08-24T00:20:33;93766.22;;;22.29;70.49
82416;BME280;72058;47.782;10.618;2023-08-24T00:22:59;93759.91;;;22.36;69.80
82416;BME280;72058;47.782;10.618;2023-08-24T00:25:24;93764.25;;;22.30;70.48
82416;BME280;72058;47.782;10.618;2023-08-24T00:27:55;93759.47;;;22.27;70.19
82416;BME280;72058;47.782;10.618;2023-08-24T00:30:20;93770.09;;;22.18;70.16
82416;BME280;72058;47.782;10.618;2023-08-24T00:32:46;93771.03;;;22.40;69.37
82416;BME280;72058;47.782;10.618;2023-08-24T00:35:11;93769.47;;;22.42;68.84
82416;BME280;72058;47.782;10.618;2023-08-24T00:37:37;93757.94;;;22.37;68.75
82416;BME280;72058;47.782;10.618;2023-08-24T00:40:05;93767.06;;;22.33;68.64
82416;BME280;72058;47.782;10.618;2023-08-24T00:42:40;93757.53;;;22.31;68.85
82416;BME280;72058;47.782;10.618;2023-08-24T00:45:07;93761.47;;;22.30;68.69
82416;BME280;72058;47.782;10.618;2023-08-24T00:47:34;93757.06;;;22.22;68.66
82416;BME280;72058;47.782;10.618;2023-08-24T00:50:01;93746.69;;;22.12;69.27
82416;BME280;72058;47.782;10.618;2023-08-24T00:52:28;93747.50;;;22.12;69.36
82416;BME280;72058;47.782;10.618;2023-08-24T00:54:54;93757.78;;;22.08;69.13
82416;BME280;72058;47.782;10.618;2023-08-24T00:57:21;93752.56;;;22.00;69.62
82416;BME280;72058;47.782;10.618;2023-08-24T00:59:47;93746.63;;;22.01;69.29
82416;BME280;72058;47.782;10.618;2023-08-24T01:02:12;93744.75;;;22.16;68.91
82416;BME280;72058;47.782;10.618;2023-08-24T01:04:41;93748.00;;;22.28;68.48
82416;BME280;72058;47.782;10.618;2023-08-24T01:07:06;93749.38;;;22.01;nan
82416;BME280;72058;47.782;10.618;2023-08-24T01:09:33;93746.63;;;22.01;69.73
82416;BME280;72058;47.782;10.618;2023-08-24T01:15:25;93742.13;;;21.86;70.04
82416;BME280;72058;47.782;10.618;2023-08-24T01:17:55;93744.56;;;21.91;69.88
82416;BME280;72058;47.782;10.618;2023-08-24T01:20:24;93740.69;;;21.99;69.46
82416;BME280;72058;47.782;10.618;2023-08-24T01:25:48;93739.91;;;21.99;69.62
82416;BME280;72058;47.782;10.618;2023-08-24T01:28:17;93727.22;;;21.98;69.56
82416;BME280;72058;47.782;10.618;2023-08-24T01:30:44;93733.19;;;22.03;69.52
82416;BME280;72058;47.782;10.618;2023-08-24T01:33:09;93730.78;;;21.98;69.52
82416;BME280;72058;47.782;10.618;2023-08-24T01:35:37;93739.13;;;22.05;68.88
82416;BME280;72058;47.782;10.618;2023-08-24T01:38:03;93735.78;;;21.82;69.71
82416;BME280;72058;47.782;10.618;2023-08-24T01:40:54;93736.25;;;21.91;69.35
82416;BME280;72058;47.782;10.618;2023-08-24T01:43:20;93734.19;;;21.84;69.50
82416;BME280;72058;47.782;10.618;2023-08-24T01:45:47;93735.63;;;21.64;69.93
82416;BME280;72058;47.782;10.618;2023-08-24T01:48:14;93731.53;;;21.47;70.37
82416;BME280;72058;47.782;10.618;2023-08-24T01:50:41;93725.59;;;21.45;70.31
82416;BME280;72058;47.782;10.618;2023-08-24T01:53:07;93733.94;;;21.52;70.03
82416;BME280;72058;47.782;10.618;2023-08-24T01:55:32;93727.72;;;21.63;69.46
82416;BME280;72058;47.782;10.618;2023-08-24T01:57:58;93725.25;;;21.54;69.48
82416;BME280;72058;47.782;10.618;2023-08-24T02:00:23;93720.09;;;21.49;69.86
82416;BME280;72058;47.782;10.618;2023-08-24T02:02:49;93723.59;;;21.42;70.15
82416;BME280;72058;47.782;10.618;2023-08-24T02:05:14;93711.69;;;21.38;70.14
82416;BME280;72058;47.782;10.618;2023-08-24T02:07:40;93715.22;;;21.35;70.31
82416;BME280;72058;47.782;10.618;2023-08-24T02:10:06;93704.06;;;21.28;70.53
82416;BME280;72058;47.782;10.618;2023-08-24T02:12:31;93704.06;;;21.28;70.41
82416;BME280;72058;47.782;10.618;2023-08-24T02:14:57;93703.25;;;21.24;70.57
82416;BME280;72058;47.782;10.618;2023-08-24T02:17:22;93699.72;;;21.27;70.55
82416;BME280;72058;47.782;10.618;2023-08-24T02:19:48;93707.25;;;21.30;70.50
82416;BME280;72058;47.782;10.618;2023-08-24T02:22:14;93702.88;;;21.26;70.83
82416;BME280;72058;47.782;10.618;2023-08-24T02:24:39;93702.91;;;21.29;70.60
82416;BME280;72058;47.782;10.618;2023-08-24T02:27:04;93699.00;;;21.34;70.37
82416;BME280;72058;47.782;10.618;2023-08-24T02:29:30;93694.22;;;21.34;69.96
82416;BME280;72058;47.782;10.618;2023-08-24T02:31:55;93694.53;;;21.22;70.69
82416;BME280;72058;47.782;10.618;2023-08-24T02:34:21;93689.84;;;21.30;70.23
82416;BME280;72058;47.782;10.618;2023-08-24T02:36:46;93687.47;;;21.28;69.91
82416;BME280;72058;47.782;10.618;2023-08-24T02:39:11;93678.78;;;21.30;70.27
82416;BME280;72058;47.782;10.618;2023-08-24T02:41:37;93677.56;;;21.27;69.60
82416;BME280;72058;47.782;10.618;2023-08-24T02:44:03;93683.75;;;21.13;70.32
82416;BME280;72058;47.782;10.618;2023-08-24T02:46:28;93684.44;;;21.03;70.99
82416;BME280;72058;47.782;10.618;2023-08-24T02:48:54;93677.47;;;21.16;70.46
82416;BME280;72058;47.782;10.618;2023-08-24T02:51:21;93680.47;;;21.01;70.63
82416;BME280;72058;47.782;10.618;2023-08-24T02:53:48;93669.69;;;20.89;70.89
82416;BME280;72058;47.782;10.618;2023-08-24T02:56:13;93669.25;;;20.83;71.34
82416;BME280;72058;47.782;10.618;2023-08-24T02:58:38;93668.09;;;20.88;71.10
82416;BME280;72058;47.782;10.618;2023-08-24T03:01:08;93670.44;;;20.86;70.91
82416;BME280;72058;47.782;10.618;2023-08-24T03:03:35;93669.31;;;20.90;70.40
82416;BME280;72058;47.782;10.618;2023-08-24T03:06:03;93672.44;;;20.89;70.57
82416;BME280;72058;47.782;10.618;2023-08-24T03:08:29;93673.56;;;20.80;70.62
82416;BME280;72058;47.782;10.618;2023-08-24T03:10:55;93664.88;;;20.82;70.49
82416;BME280;72058;47.782;10.618;2023-08-24T03:13:21;93665.28;;;20.84;70.50
82416;BME280;72058;47.782;10.618;2023-08-24T03:15:46;93667.28;;;20.83;70.72
82416;BME280;72058;47.782;10.618;2023-08-24T03:18:12;93663.00;;;20.93;70.24
82416;BME280;72058;47.782;10.618;2023-08-24T03:20:38;93656.53;;;20.78;70.88
82416;BME280;72058;47.782;10.618;2023-08-24T03:23:04;93653.28;;;20.69;71.04
82416;BME280;72058;47.782;10.618;2023-08-24T03:25:31;93660.97;;;20.87;70.44
82416;BME280;72058;47.782;10.618;2023-08-24T03:27:56;93661.09;;;21.01;69.73
82416;BME280;72058;47.782;10.618;2023-08-24T03:30:22;93659.59;;;21.10;69.27
82416;BME280;72058;47.782;10.618;2023-08-24T03:32:47;93656.28;;;20.91;69.83
82416;BME280;72058;47.782;10.618;2023-08-24T03:35:13;93661.31;;;20.81;70.19
82416;BME280;72058;47.782;10.618;2023-08-24T03:37:38;93665.00;;;20.59;70.80
82416;BME280;72058;47.782;10.618;2023-08-24T03:40:04;93659.97;;;20.68;70.55
82416;BME280;72058;47.782;10.618;2023-08-24T03:42:31;93654.75;;;20.60;70.83
82416;BME280;72058;47.782;10.618;2023-08-24T03:44:59;93660.97;;;20.50;71.18
82416;BME280;72058;47.782;10.618;2023-08-24T03:47:25;93661.28;;;20.44;71.60
82416;BME280;72058;47.782;10.618;2023-08-24T03:49:50;93664.84;;;20.41;71.66
82416;BME280;72058;47.782;10.618;2023-08-24T03:52:16;93654.47;;;20.35;72.03
82416;BME280;72058;47.782;10.618;2023-08-24T03:54:41;93654.19;;;20.14;72.94
82416;BME280;72058;47.782;10.618;2023-08-24T03:57:06;93658.84;;;20.06;73.17
82416;BME280;72058;47.782;10.618;2023-08-24T03:59:31;93654.28;;;20.21;72.55
82416;BME280;72058;47.782;10.618;2023-08-24T04:01:57;93655.34;;;20.13;73.18
82416;BME280;72058;47.782;10.618;2023-08-24T04:04:27;93654.78;;;19.70;74.56
82416;BME280;72058;47.782;10.618;2023-08-24T04:06:52;93659.38;;;19.89;73.91
82416;BME280;72058;47.782;10.618;2023-08-24T04:09:17;93653.25;;;20.02;73.56
82416;BME280;72058;47.782;10.618;2023-08-24T04:11:43;93659.63;;;20.06;73.00
82416;BME280;72058;47.782;10.618;2023-08-24T04:14:08;93650.56;;;20.09;72.10
82416;BME280;72058;47.782;10.618;2023-08-24T04:16:34;93649.47;;;20.14;71.50
82416;BME280;72058;47.782;10.618;2023-08-24T04:18:59;93653.03;;;20.15;71.61
82416;BME280;72058;47.782;10.618;2023-08-24T04:21:24;93654.91;;;20.07;71.88
82416;BME280;72058;47.782;10.618;2023-08-24T04:23:49;93656.16;;;20.13;71.46
82416;BME280;72058;47.782;10.618;2023-08-24T04:26:15;93650.25;;;20.15;71.24
82416;BME280;72058;47.782;10.618;2023-08-24T04:28:40;93653.91;;;20.22;70.90
82416;BME280;72058;47.782;10.618;2023-08-24T04:31:06;93655.78;;;20.15;70.72
82416;BME280;72058;47.782;10.618;2023-08-24T04:33:31;93649.13;;;20.19;70.16
82416;BME280;72058;47.782;10.618;2023-08-24T04:35:57;93653.84;;;20.19;70.20
82416;BME280;72058;47.782;10.618;2023-08-24T04:38:23;93656.44;;;20.04;70.52
82416;BME280;72058;47.782;10.618;2023-08-24T04:40:49;93650.28;;;20.18;70.22
82416;BME280;72058;47.782;10.618;2023-08-24T04:43:16;93655.72;;;20.11;69.93
82416;BME280;72058;47.782;10.618;2023-08-24T04:45:42;93649.75;;;20.05;70.33
82416;BME280;72058;47.782;10.618;2023-08-24T04:48:07;93656.31;;;20.27;69.64
82416;BME280;72058;47.782;10.618;2023-08-24T04:50:33;93660.13;;;20.45;68.57
82416;BME280;72058;47.782;10.618;2023-08-24T04:52:59;93654.94;;;20.40;68.15
82416;BME280;72058;47.782;10.618;2023-08-24T04:55:24;93656.69;;;20.26;68.48
82416;BME280;72058;47.782;10.618;2023-08-24T04:57:49;93656.25;;;20.20;68.57
82416;BME280;72058;47.782;10.618;2023-08-24T05:00:15;93658.25;;;20.23;68.71
82416;BME280;72058;47.782;10.618;2023-08-24T05:02:42;93654.41;;;20.31;68.31
82416;BME280;72058;47.782;10.618;2023-08-24T05:05:09;93663.97;;;20.37;68.08
82416;BME280;72058;47.782;10.618;2023-08-24T05:07:39;93653.25;;;20.32;67.86
82416;BME280;72058;47.782;10.618;2023-08-24T05:10:06;93655.34;;;20.42;67.66
82416;BME280;72058;47.782;10.618;2023-08-24T05:12:32;93655.34;;;20.42;67.58
82416;BME280;72058;47.782;10.618;2023-08-24T05:14:59;93659.00;;;20.50;67.23
82416;BME280;72058;47.782;10.618;2023-08-24T05:17:24;93656.34;;;20.61;66.69
82416;BME280;72058;47.782;10.618;2023-08-24T05:19:53;93653.22;;;20.62;66.73
82416;BME280;72058;47.782;10.618;2023-08-24T05:22:18;93655.66;;;20.71;66.40
82416;BME280;72058;47.782;10.618;2023-08-24T05:24:44;93660.91;;;20.79;66.08
82416;BME280;72058;47.782;10.618;2023-08-24T05:27:09;93652.25;;;20.84;65.94
82416;BME280;72058;47.782;10.618;2023-08-24T05:29:34;93647.25;;;21.01;65.48
82416;BME280;72058;47.782;10.618;2023-08-24T05:32:00;93652.94;;;21.15;64.71
82416;BME280;72058;47.782;10.618;2023-08-24T05:34:25;93656.84;;;21.10;64.39
82416;BME280;72058;47.782;10.618;2023-08-24T05:36:51;93655.53;;;21.38;63.75
82416;BME280;72058;47.782;10.618;2023-08-24T05:39:16;93653.31;;;21.57;63.13
82416;BME280;72058;47.782;10.618;2023-08-24T05:41:41;93648.16;;;21.56;63.21
82416;BME280;72058;47.782;10.618;2023-08-24T05:44:07;93650.22;;;21.70;62.85
82416;BME280;72058;47.782;10.618;2023-08-24T05:46:32;93652.56;;;21.68;62.84
82416;BME280;72058;47.782;10.618;2023-08-24T05:48:58;93647.91;;;21.79;62.17
82416;BME280;72058;47.782;10.618;2023-08-24T05:51:24;93649.13;;;21.81;61.80
82416;BME280;72058;47.782;10.618;2023-08-24T05:53:50;93654.63;;;21.78;62.31
82416;BME280;72058;47.782;10.618;2023-08-24T05:56:24;93651.28;;;22.06;61.57
82416;BME280;72058;47.782;10.618;2023-08-24T05:58:49;93662.41;;;22.16;61.03
82416;BME280;72058;47.782;10.618;2023-08-24T06:01:15;93664.06;;;22.35;60.70
82416;BME280;72058;47.782;10.618;2023-08-24T06:03:40;93668.00;;;22.23;60.83
82416;BME280;72058;47.782;10.618;2023-08-24T06:06:05;93662.81;;;22.18;60.65
82416;BME280;72058;47.782;10.618;2023-08-24T06:08:31;93658.56;;;22.46;60.17
82416;BME280;72058;47.782;10.618;2023-08-24T06:10:57;93657.72;;;22.34;60.54
82416;BME280;72058;47.782;10.618;2023-08-24T06:13:23;93649.88;;;22.54;59.51
82416;BME280;72058;47.782;10.618;2023-08-24T06:15:48;93639.97;;;22.50;60.22
82416;BME280;72058;47.782;10.618;2023-08-24T06:18:14;93632.97;;;22.81;59.34
82416;BME280;72058;47.782;10.618;2023-08-24T06:20:39;93638.13;;;22.96;58.06
82416;BME280;72058;47.782;10.618;2023-08-24T06:23:04;93644.88;;;22.88;58.01
82416;BME280;72058;47.782;10.618;2023-08-24T06:25:30;93646.38;;;22.71;58.53
82416;BME280;72058;47.782;10.618;2023-08-24T06:27:57;93641.16;;;22.49;56.62
82416;BME280;72058;47.782;10.618;2023-08-24T06:30:24;93636.03;;;22.51;56.68
82416;BME280;72058;47.782;10.618;2023-08-24T06:32:49;93646.00;;;22.73;56.96
82416;BME280;72058;47.782;10.618;2023-08-24T06:35:14;93641.19;;;22.63;57.08
82416;BME280;72058;47.782;10.618;2023-08-24T06:37:40;93639.22;;;22.63;56.96
82416;BME280;72058;47.782;10.618;2023-08-24T06:40:06;93634.53;;;22.85;56.13
82416;BME280;72058;47.782;10.618;2023-08-24T06:42:31;93627.38;;;22.77;57.21
82416;BME280;72058;47.782;10.618;2023-08-24T06:44:56;93609.59;;;22.92;58.63
82416;BME280;72058;47.782;10.618;2023-08-24T06:47:22;93608.84;;;23.10;58.81
82416;BME280;72058;47.782;10.618;2023-08-24T06:49:47;93614.75;;;22.97;59.33
82416;BME280;72058;47.782;10.618;2023-08-24T06:52:13;93606.03;;;22.92;60.54
82416;BME280;72058;47.782;10.618;2023-08-24T06:54:38;93616.34;;;22.84;60.55
82416;BME280;72058;47.782;10.618;2023-08-24T06:57:04;93613.16;;;22.82;60.93
82416;BME280;72058;47.782;10.618;2023-08-24T06:59:30;93612.38;;;22.89;59.72
82416;BME280;72058;47.782;10.618;2023-08-24T07:01:55;93605.63;;;22.93;59.62
82416;BME280;72058;47.782;10.618;2023-08-24T07:04:21;93595.72;;;23.06;60.07
82416;BME280;72058;47.782;10.618;2023-08-24T07:06:46;93593.78;;;23.18;59.40
82416;BME280;72058;47.782;10.618;2023-08-24T07:09:11;93608.03;;;23.30;59.37
82416;BME280;72058;47.782;10.618;2023-08-24T07:11:37;93601.66;;;23.44;59.07
82416;BME280;72058;47.782;10.618;2023-08-24T07:14:02;93599.28;;;23.46;58.80
82416;BME280;72058;47.782;10.618;2023-08-24T07:16:27;93596.13;;;23.62;58.61
82416;BME280;72058;47.782;10.618;2023-08-24T07:18:53;93595.31;;;23.75;58.11
82416;BME280;72058;47.782;10.618;2023-08-24T07:21:18;93594.91;;;23.77;58.75
82416;BME280;72058;47.782;10.618;2023-08-24T07:23:43;93593.28;;;23.97;58.30
82416;BME280;72058;47.782;10.618;2023-08-24T07:26:10;93594.41;;;24.10;57.67
82416;BME280;72058;47.782;10.618;2023-08-24T07:28:35;93582.50;;;24.20;57.84
82416;BME280;72058;47.782;10.618;2023-08-24T07:31:07;93585.25;;;24.35;57.22
82416;BME280;72058;47.782;10.618;2023-08-24T07:33:32;93588.75;;;24.46;56.94
82416;BME280;72058;47.782;10.618;2023-08-24T07:35:58;93575.22;;;24.51;57.17
82416;BME280;72058;47.782;10.618;2023-08-24T07:38:23;93575.06;;;24.76;57.45
82416;BME280;72058;47.782;10.618;2023-08-24T07:40:48;93577.16;;;24.58;57.22
82416;BME280;72058;47.782;10.618;2023-08-24T07:43:14;93573.44;;;24.79;56.73
82416;BME280;72058;47.782;10.618;2023-08-24T07:45:39;93570.19;;;24.98;56.60
82416;BME280;72058;47.782;10.618;2023-08-24T07:48:06;93567.28;;;25.12;55.48
82416;BME280;72058;47.782;10.618;2023-08-24T07:50:31;93569.97;;;25.23;55.37
82416;BME280;72058;47.782;10.618;2023-08-24T07:52:57;93568.31;;;25.32;54.68
82416;BME280;72058;47.782;10.618;2023-08-24T07:55:22;93567.44;;;25.43;54.34
82416;BME280;72058;47.782;10.618;2023-08-24T07:57:47;93565.72;;;25.56;54.38
82416;BME280;72058;47.782;10.618;2023-08-24T08:00:14;93569.66;;;25.62;54.31
82416;BME280;72058;47.782;10.618;2023-08-24T08:02:40;93562.00;;;25.69;53.56
82416;BME280;72058;47.782;10.618;2023-08-24T08:05:06;93568.81;;;25.68;53.96
82416;BME280;72058;47.782;10.618;2023-08-24T08:07:38;93568.63;;;25.42;54.03
82416;BME280;72058;47.782;10.618;2023-08-24T08:10:04;93568.09;;;25.57;53.39
82416;BME280;72058;47.782;10.618;2023-08-24T08:12:29;93570.09;;;25.60;53.64
82416;BME280;72058;47.782;10.618;2023-08-24T08:14:57;93572.88;;;25.60;53.86
82416;BME280;72058;47.782;10.618;2023-08-24T08:17:22;93568.88;;;25.58;53.11
82416;BME280;72058;47.782;10.618;2023-08-24T08:19:48;93563.75;;;25.53;52.43
82416;BME280;72058;47.782;10.618;2023-08-24T08:22:13;93569.63;;;25.65;53.08
82416;BME280;72058;47.782;10.618;2023-08-24T08:24:38;93571.16;;;25.70;51.68
82416;BME280;72058;47.782;10.618;2023-08-24T08:27:04;93573.03;;;25.84;51.60
82416;BME280;72058;47.782;10.618;2023-08-24T08:29:29;93564.28;;;26.19;51.82
82416;BME280;72058;47.782;10.618;2023-08-24T08:31:54;93564.50;;;26.35;51.00
82416;BME280;72058;47.782;10.618;2023-08-24T08:34:20;93562.13;;;26.34;51.07
82416;BME280;72058;47.782;10.618;2023-08-24T08:36:45;93562.44;;;26.39;51.07
82416;BME280;72058;47.782;10.618;2023-08-24T08:39:11;93564.03;;;26.40;51.48
82416;BME280;72058;47.782;10.618;2023-08-24T08:41:42;93564.00;;;26.44;51.52
82416;BME280;72058;47.782;10.618;2023-08-24T08:44:10;93569.94;;;26.46;51.66
82416;BME280;72058;47.782;10.618;2023-08-24T08:46:38;93559.53;;;26.50;51.74
82416;BME280;72058;47.782;10.618;2023-08-24T08:49:04;93550.31;;;26.53;52.03
82416;BME280;72058;47.782;10.618;2023-08-24T08:51:31;93553.88;;;26.54;53.40
82416;BME280;72058;47.782;10.618;2023-08-24T08:53:57;93549.38;;;26.63;53.42
82416;BME280;72058;47.782;10.618;2023-08-24T08:56:23;93542.91;;;26.70;53.70
82416;BME280;72058;47.782;10.618;2023-08-24T08:58:49;93553.13;;;26.80;54.58
82416;BME280;72058;47.782;10.618;2023-08-24T09:01:15;93548.34;;;26.80;54.60
82416;BME280;72058;47.782;10.618;2023-08-24T09:03:42;93549.50;;;26.83;55.66
82416;BME280;72058;47.782;10.618;2023-08-24T09:06:09;93539.44;;;26.89;54.90
82416;BME280;72058;47.782;10.618;2023-08-24T09:08:34;93543.41;;;26.92;54.07
82416;BME280;72058;47.782;10.618;2023-08-24T09:10:59;93539.59;;;26.78;53.31
82416;BME280;72058;47.782;10.618;2023-08-24T09:13:26;93538.53;;;26.69;53.13
82416;BME280;72058;47.782;10.618;2023-08-24T09:15:52;93535.47;;;26.60;53.62
82416;BME280;72058;47.782;10.618;2023-08-24T09:18:20;93530.25;;;26.62;53.74
82416;BME280;72058;47.782;10.618;2023-08-24T09:20:47;93535.78;;;26.65;54.78
82416;BME280;72058;47.782;10.618;2023-08-24T09:23:19;93529.00;;;26.66;54.59
82416;BME280;72058;47.782;10.618;2023-08-24T09:25:47;93531.31;;;26.71;53.60
82416;BME280;72058;47.782;10.618;2023-08-24T09:28:13;93536.03;;;26.78;53.73
82416;BME280;72058;47.782;10.618;2023-08-24T09:30:39;93531.97;;;26.82;52.61
82416;BME280;72058;47.782;10.618;2023-08-24T09:33:10;93529.53;;;26.85;52.17
82416;BME280;72058;47.782;10.618;2023-08-24T09:35:36;93535.44;;;26.90;52.71
82416;BME280;72058;47.782;10.618;2023-08-24T09:38:21;93536.63;;;26.93;52.68
82416;BME280;72058;47.782;10.618;2023-08-24T09:40:47;93530.97;;;26.96;52.34
82416;BME280;72058;47.782;10.618;2023-08-24T09:43:16;93531.41;;;26.95;52.43
82416;BME280;72058;47.782;10.618;2023-08-24T09:45:48;93528.44;;;27.05;50.52
82416;BME280;72058;47.782;10.618;2023-08-24T09:48:14;93525.34;;;27.23;50.76
82416;BME280;72058;47.782;10.618;2023-08-24T09:50:40;93528.41;;;27.32;47.63
82416;BME280;72058;47.782;10.618;2023-08-24T09:53:07;93516.38;;;27.35;46.86
82416;BME280;72058;47.782;10.618;2023-08-24T09:55:36;93515.34;;;27.49;45.98
82416;BME280;72058;47.782;10.618;2023-08-24T09:58:03;93506.53;;;27.50;45.62
82416;BME280;72058;47.782;10.618;2023-08-24T10:00:33;93499.69;;;27.55;46.33
82416;BME280;72058;47.782;10.618;2023-08-24T10:03:01;93493.19;;;27.62;46.91
82416;BME280;72058;47.782;10.618;2023-08-24T10:05:27;93493.06;;;27.69;45.54
82416;BME280;72058;47.782;10.618;2023-08-24T10:07:55;93488.31;;;27.66;46.67
82416;BME280;72058;47.782;10.618;2023-08-24T10:10:25;93484.94;;;27.74;44.30
82416;BME280;72058;47.782;10.618;2023-08-24T10:12:58;93481.63;;;27.79;45.14
82416;BME280;72058;47.782;10.618;2023-08-24T10:15:26;93486.31;;;27.86;44.12
82416;BME280;72058;47.782;10.618;2023-08-24T10:17:52;93482.66;;;27.89;44.81
82416;BME280;72058;47.782;10.618;2023-08-24T10:20:19;93482.09;;;27.98;45.25
82416;BME280;72058;47.782;10.618;2023-08-24T10:22:46;93476.13;;;27.95;45.59
82416;BME280;72058;47.782;10.618;2023-08-24T10:25:11;93469.53;;;28.06;44.55
82416;BME280;72058;47.782;10.618;2023-08-24T10:27:39;93464.16;;;28.15;43.98
82416;BME280;72058;47.782;10.618;2023-08-24T10:30:11;93469.75;;;28.15;41.81
82416;BME280;72058;47.782;10.618;2023-08-24T10:32:37;93469.19;;;28.23;40.77
82416;BME280;72058;47.782;10.618;2023-08-24T10:35:04;93458.78;;;28.24;39.83
82416;BME280;72058;47.782;10.618;2023-08-24T10:37:30;93460.38;;;28.25;38.94
82416;BME280;72058;47.782;10.618;2023-08-24T10:39:56;93463.63;;;28.40;38.63
82416;BME280;72058;47.782;10.618;2023-08-24T10:42:21;93462.41;;;28.41;38.14
82416;BME280;72058;47.782;10.618;2023-08-24T10:44:47;93454.75;;;28.45;38.55
82416;BME280;72058;47.782;10.618;2023-08-24T10:47:14;93444.41;;;28.42;39.17
82416;BME280;72058;47.782;10.618;2023-08-24T10:52:37;93451.63;;;28.59;37.33
82416;BME280;72058;47.782;10.618;2023-08-24T10:55:05;93454.78;;;28.61;35.85
82416;BME280;72058;47.782;10.618;2023-08-24T10:57:58;93446.44;;;28.57;36.79
82416;BME280;72058;47.782;10.618;2023-08-24T11:00:28;93442.41;;;28.78;36.57
82416;BME280;72058;47.782;10.618;2023-08-24T11:02:54;93437.38;;;28.69;35.87
82416;BME280;72058;47.782;10.618;2023-08-24T11:07:50;93434.47;;;28.73;35.82
82416;BME280;72058;47.782;10.618;2023-08-24T11:10:16;93429.84;;;28.66;36.06
82416;BME280;72058;47.782;10.618;2023-08-24T11:20:42;93435.44;;;28.66;36.50
82416;BME280;72058;47.782;10.618;2023-08-24T11:23:09;93417.41;;;28.67;38.32
82416;BME280;72058;47.782;10.618;2023-08-24T11:25:38;93422.97;;;28.87;37.17
82416;BME280;72058;47.782;10.618;2023-08-24T11:28:04;93417.53;;;28.96;36.39
82416;BME280;72058;47.782;10.618;2023-08-24T11:30:33;93414.91;;;28.89;36.45
82416;BME280;72058;47.782;10.618;2023-08-24T11:32:59;93416.84;;;28.92;37.37
82416;BME280;72058;47.782;10.618;2023-08-24T11:35:25;93414.91;;;28.89;35.63
82416;BME280;72058;47.782;10.618;2023-08-24T11:37:54;93422.88;;;28.91;35.99
82416;BME280;72058;47.782;10.618;2023-08-24T11:40:20;93408.69;;;28.98;37.71
82416;BME280;72058;47.782;10.618;2023-08-24T11:42:46;93409.38;;;29.02;38.42
82416;BME280;72058;47.782;10.618;2023-08-24T11:45:12;93410.50;;;28.88;37.46
82416;BME280;72058;47.782;10.618;2023-08-24T11:47:38;93408.50;;;28.89;39.56
82416;BME280;72058;47.782;10.618;2023-08-24T11:50:03;93398.88;;;28.90;38.58
82416;BME280;72058;47.782;10.618;2023-08-24T11:52:29;93410.25;;;29.15;37.65
82416;BME280;72058;47.782;10.618;2023-08-24T11:54:58;93402.03;;;29.08;37.54
82416;BME280;72058;47.782;10.618;2023-08-24T11:57:24;93403.34;;;29.03;37.75
82416;BME280;72058;47.782;10.618;2023-08-24T11:59:51;93398.63;;;29.00;38.51
82416;BME280;72058;47.782;10.618;2023-08-24T12:02:17;93392.03;;;29.07;38.76
82416;BME280;72058;47.782;10.618;2023-08-24T12:04:48;93403.66;;;29.22;37.40
82416;BME280;72058;47.782;10.618;2023-08-24T12:07:14;93407.72;;;29.21;37.76
82416;BME280;72058;47.782;10.618;2023-08-24T12:09:41;93403.78;;;29.18;38.05
82416;BME280;72058;47.782;10.618;2023-08-24T12:12:17;93396.50;;;29.21;36.79
82416;BME280;72058;47.782;10.618;2023-08-24T12:14:47;93399.38;;;29.17;37.14
82416;BME280;72058;47.782;10.618;2023-08-24T12:17:13;93400.84;;;29.22;37.02
82416;BME280;72058;47.782;10.618;2023-08-24T12:19:43;93393.94;;;29.26;36.63
82416;BME280;72058;47.782;10.618;2023-08-24T12:22:17;93388.00;;;29.24;37.15
82416;BME280;72058;47.782;10.618;2023-08-24T12:24:47;93384.03;;;29.38;36.76
82416;BME280;72058;47.782;10.618;2023-08-24T12:27:24;93381.06;;;29.45;37.35
82416;BME280;72058;47.782;10.618;2023-08-24T12:29:50;93384.19;;;29.47;35.54
82416;BME280;72058;47.782;10.618;2023-08-24T12:32:16;93375.19;;;29.39;35.43
82416;BME280;72058;47.782;10.618;2023-08-24T12:34:45;93372.09;;;29.50;34.45
82416;BME280;72058;47.782;10.618;2023-08-24T12:37:10;93368.41;;;29.53;34.69
82416;BME280;72058;47.782;10.618;2023-08-24T12:39:38;93372.00;;;29.54;35.42
82416;BME280;72058;47.782;10.618;2023-08-24T12:42:04;93368.22;;;29.60;35.66
82416;BME280;72058;47.782;10.618;2023-08-24T12:44:30;93370.59;;;29.74;35.58
82416;BME280;72058;47.782;10.618;2023-08-24T12:46:55;93369.59;;;29.81;35.36
82416;BME280;72058;47.782;10.618;2023-08-24T12:49:21;93363.50;;;29.99;33.73
82416;BME280;72058;47.782;10.618;2023-08-24T12:51:46;93362.38;;;29.96;34.29
82416;BME280;72058;47.782;10.618;2023-08-24T12:54:12;93366.44;;;29.95;34.62
82416;BME280;72058;47.782;10.618;2023-08-24T12:56:41;93360.81;;;29.95;34.79
82416;BME280;72058;47.782;10.618;2023-08-24T12:59:07;93356.22;;;30.01;34.40
82416;BME280;72058;47.782;10.618;2023-08-24T13:01:32;93350.25;;;29.99;34.57
82416;BME280;72058;47.782;10.618;2023-08-24T13:03:58;93345.56;;;30.09;34.47
82416;BME280;72058;47.782;10.618;2023-08-24T13:06:23;93352.41;;;30.08;34.38